sensor_id;sensor_type;location;lat;lon;timestamp;P1;durP1;ratioP1;P2;durP2;ratioP2
37365;SDS011;23239;51.504;7.456;2023-06-22T00:00:00;9.7;;;6.8;;
37365;SDS011;23239;51.504;7.456;2023-06-22T00:01:00;9.7;;;6.8;;
37365;SDS011;23239;51.504;7.456;2023-06-22T00:02:00;9.7;;;6.8;;
37365;SDS011;23239;51.504;7.456;2023-06-22T00:03:00;10.0;;;6.8;;
37365;SDS011;23239;51.504;7.456;2023-06-22T00:04:00;10.0;;;6.8;;
37365;SDS011;23239;51.504;7.456;2023-06-22T00:05:00;10.0;;;6.8;;
37365;SDS011;23239;51.504;7.456;2023-06-22T00:06:00;10.0;;;6.8;;
37365;SDS011;23239;51.504;7.456;2023-06-22T00:07:00;10.0;;;6.8;;
37365;SDS011;23239;51.504;7.456;2023-06-22T00:08:01;12.9;;;7.9;;
37365;SDS011;23239;51.504;7.456;2023-06-22T00:09:00;12.9;;;7.9;;
37365;SDS011;23239;51.504;7.456;2023-06-22T00:10:00;12.9;;;7.9;;
37365;SDS011;23239;51.504;7.456;2023-06-22T00:11:00;12.9;;;7.9;;
37365;SDS011;23239;51.504;7.456;2023-06-22T00:12:00;12.9;;;7.9;;
37365;SDS011;23239;51.504;7.456;2023-06-22T00:13:00;12.1;;;7.9;;
37365;SDS011;23239;51.504;7.456;2023-06-22T00:14:00;12.1;;;7.9;;
37365;SDS011;23239;51.504;7.456;2023-06-22T00:15:00;12.1;;;7.9;;
37365;SDS011;23239;51.504;7.456;2023-06-22T00:16:00;12.1;;;7.9;;
37365;SDS011;23239;51.504;7.456;2023-06-22T00:17:00;12.1;;;7.9;;
37365;SDS011;23239;51.504;7.456;2023-06-22T00:18:00;10.9;;;7.6;;
37365;SDS011;23239;51.504;7.456;2023-06-22T00:19:00;10.9;;;7.6;;
37365;SDS011;23239;51.504;7.456;2023-06-22T00:20:00;10.9;;;7.6;;
37365;SDS011;23239;51.504;7.456;2023-06-22T00:21:00;10.9;;;7.6;;
37365;SDS011;23239;51.504;7.456;2023-06-22T00:22:00;10.9;;;7.6;;
37365;SDS011;23239;51.504;7.456;2023-06-22T00:23:00;10.4;;;6.9;;
37365;SDS011;23239;51.504;7.456;2023-06-22T00:24:00;10.4;;;6.9;;
37365;SDS011;23239;51.504;7.456;2023-06-22T00:25:00;10.4;;;6.9;;
37365;SDS011;23239;51.504;7.456;2023-06-22T00:26:00;10.4;;;6.9;;
37365;SDS011;23239;51.504;7.456;2023-06-22T00:27:00;10.4;;;6.9;;
37365;SDS011;23239;51.504;7.456;2023-06-22T00:28:00;9.9;;;6.4;;
37365;SDS011;23239;51.504;7.456;2023-06-22T00:29:00;9.9;;;6.4;;
37365;SDS011;23239;51.504;7.456;2023-06-22T00:30:00;9.9;;;6.4;;
37365;SDS011;23239;51.504;7.456;2023-06-22T00:31:00;9.9;;;6.4;;
37365;SDS011;23239;51.504;7.456;2023-06-22T00:32:00;9.9;;;6.4;;
37365;SDS011;23239;51.504;7.456;2023-06-22T00:33:00;9.6;;;6.5;;
37365;SDS011;23239;51.504;7.456;2023-06-22T00:34:00;9.6;;;6.5;;
37365;SDS011;23239;51.504;7.456;2023-06-22T00:35:00;9.6;;;6.5;;
37365;SDS011;23239;51.504;7.456;2023-06-22T00:36:00;9.6;;;6.5;;
37365;SDS011;23239;51.504;7.456;2023-06-22T00:37:00;9.6;;;6.5;;
37365;SDS011;23239;51.504;7.456;2023-06-22T00:38:00;9.4;;;6.6;;
37365;SDS011;23239;51.504;7.456;2023-06-22T00:39:00;9.4;;;6.6;;
37365;SDS011;23239;51.504;7.456;2023-06-22T00:40:00;9.4;;;6.6;;
37365;SDS011;23239;51.504;7.456;2023-06-22T00:41:00;9.4;;;6.6;;
37365;SDS011;23239;51.504;7.456;2023-06-22T00:42:00;9.4;;;6.6;;
37365;SDS011;23239;51.504;7.456;2023-06-22T00:43:00;8.5;;;5.6;;
37365;SDS011;23239;51.504;7.456;2023-06-22T00:44:00;8.5;;;5.6;;
37365;SDS011;23239;51.504;7.456;2023-06-22T00:45:00;8.5;;;5.6;;
37365;SDS011;23239;51.504;7.456;2023-06-22T00:46:00;8.5;;;5.6;;
37365;SDS011;23239;51.504;7.456;2023-06-22T00:47:00;8.5;;;5.6;;
37365;SDS011;23239;51.504;7.456;2023-06-22T00:48:00;7.6;;;5.8;;
37365;SDS011;23239;51.504;7.456;2023-06-22T00:49:00;7.6;;;5.8;;
37365;SDS011;23239;51.504;7.456;2023-06-22T00:50:00;7.6;;;5.8;;
37365;SDS011;23239;51.504;7.456;2023-06-22T00:51:00;7.6;;;5.8;;
37365;SDS011;23239;51.504;7.456;2023-06-22T00:52:00;7.6;;;5.8;;
37365;SDS011;23239;51.504;7.456;2023-06-22T00:53:01;7.5;;;6.0;;
37365;SDS011;23239;51.504;7.456;2023-06-22T00:54:00;7.5;;;6.0;;
37365;SDS011;23239;51.504;7.456;2023-06-22T00:55:00;7.5;;;6.0;;
37365;SDS011;23239;51.504;7.456;2023-06-22T00:56:00;7.5;;;6.0;;
37365;SDS011;23239;51.504;7.456;2023-06-22T00:57:00;7.5;;;6.0;;
37365;SDS011;23239;51.504;7.456;2023-06-22T00:58:00;8.8;;;6.4;;
37365;SDS011;23239;51.504;7.456;2023-06-22T00:59:00;8.8;;;6.4;;
37365;SDS011;23239;51.504;7.456;2023-06-22T01:00:00;8.8;;;6.4;;
37365;SDS011;23239;51.504;7.456;2023-06-22T01:01:00;8.8;;;6.4;;
37365;SDS011;23239;51.504;7.456;2023-06-22T01:02:00;8.8;;;6.4;;
37365;SDS011;23239;51.504;7.456;2023-06-22T01:03:01;9.3;;;6.6;;
37365;SDS011;23239;51.504;7.456;2023-06-22T01:04:00;9.3;;;6.6;;
37365;SDS011;23239;51.504;7.456;2023-06-22T01:05:00;9.3;;;6.6;;
37365;SDS011;23239;51.504;7.456;2023-06-22T01:06:02;9.3;;;6.6;;
37365;SDS011;23239;51.504;7.456;2023-06-22T01:07:01;9.3;;;6.6;;
37365;SDS011;23239;51.504;7.456;2023-06-22T01:08:07;9.2;;;7.0;;
37365;SDS011;23239;51.504;7.456;2023-06-22T01:09:00;9.2;;;7.0;;
37365;SDS011;23239;51.504;7.456;2023-06-22T01:10:03;9.2;;;7.0;;
37365;SDS011;23239;51.504;7.456;2023-06-22T01:11:01;9.2;;;7.0;;
37365;SDS011;23239;51.504;7.456;2023-06-22T01:12:01;9.2;;;7.0;;
37365;SDS011;23239;51.504;7.456;2023-06-22T01:13:01;10.9;;;6.9;;
37365;SDS011;23239;51.504;7.456;2023-06-22T01:14:03;10.9;;;6.9;;
37365;SDS011;23239;51.504;7.456;2023-06-22T01:15:02;10.9;;;6.9;;
37365;SDS011;23239;51.504;7.456;2023-06-22T01:16:01;10.9;;;6.9;;
37365;SDS011;23239;51.504;7.456;2023-06-22T01:17:00;10.9;;;6.9;;
37365;SDS011;23239;51.504;7.456;2023-06-22T01:18:00;10.4;;;7.4;;
37365;SDS011;23239;51.504;7.456;2023-06-22T01:19:01;10.4;;;7.4;;
37365;SDS011;23239;51.504;7.456;2023-06-22T01:20:00;10.4;;;7.4;;
37365;SDS011;23239;51.504;7.456;2023-06-22T01:21:00;10.4;;;7.4;;
37365;SDS011;23239;51.504;7.456;2023-06-22T01:22:00;10.4;;;7.4;;
37365;SDS011;23239;51.504;7.456;2023-06-22T01:23:07;9.5;;;8.0;;
37365;SDS011;23239;51.504;7.456;2023-06-22T01:24:02;9.5;;;8.0;;
37365;SDS011;23239;51.504;7.456;2023-06-22T01:25:04;9.5;;;8.0;;
37365;SDS011;23239;51.504;7.456;2023-06-22T01:26:03;9.5;;;8.0;;
37365;SDS011;23239;51.504;7.456;2023-06-22T01:27:05;9.5;;;8.0;;
37365;SDS011;23239;51.504;7.456;2023-06-22T01:28:03;10.9;;;7.7;;
37365;SDS011;23239;51.504;7.456;2023-06-22T01:29:00;10.9;;;7.7;;
37365;SDS011;23239;51.504;7.456;2023-06-22T01:30:00;10.9;;;7.7;;
37365;SDS011;23239;51.504;7.456;2023-06-22T01:31:00;10.9;;;7.7;;
37365;SDS011;23239;51.504;7.456;2023-06-22T01:32:00;10.9;;;7.7;;
37365;SDS011;23239;51.504;7.456;2023-06-22T01:33:00;11.6;;;7.9;;
37365;SDS011;23239;51.504;7.456;2023-06-22T01:34:01;11.6;;;7.9;;
37365;SDS011;23239;51.504;7.456;2023-06-22T01:35:01;11.6;;;7.9;;
37365;SDS011;23239;51.504;7.456;2023-06-22T01:36:00;11.6;;;7.9;;
37365;SDS011;23239;51.504;7.456;2023-06-22T01:37:00;11.6;;;7.9;;
37365;SDS011;23239;51.504;7.456;2023-06-22T01:38:00;14.0;;;8.3;;
37365;SDS011;23239;51.504;7.456;2023-06-22T01:39:00;14.0;;;8.3;;
37365;SDS011;23239;51.504;7.456;2023-06-22T01:40:00;14.0;;;8.3;;
37365;SDS011;23239;51.504;7.456;2023-06-22T01:41:00;14.0;;;8.3;;
37365;SDS011;23239;51.504;7.456;2023-06-22T01:42:00;14.0;;;8.3;;
37365;SDS011;23239;51.504;7.456;2023-06-22T01:43:00;10.7;;;7.8;;
37365;SDS011;23239;51.504;7.456;2023-06-22T01:44:00;10.7;;;7.8;;
37365;SDS011;23239;51.504;7.456;2023-06-22T01:45:00;10.7;;;7.8;;
37365;SDS011;23239;51.504;7.456;2023-06-22T01:46:01;10.7;;;7.8;;
37365;SDS011;23239;51.504;7.456;2023-06-22T01:47:00;10.7;;;7.8;;
37365;SDS011;23239;51.504;7.456;2023-06-22T01:48:00;10.2;;;6.8;;
37365;SDS011;23239;51.504;7.456;2023-06-22T01:49:00;10.2;;;6.8;;
37365;SDS011;23239;51.504;7.456;2023-06-22T01:50:00;10.2;;;6.8;;
37365;SDS011;23239;51.504;7.456;2023-06-22T01:51:00;10.2;;;6.8;;
37365;SDS011;23239;51.504;7.456;2023-06-22T01:52:00;10.2;;;6.8;;
37365;SDS011;23239;51.504;7.456;2023-06-22T01:53:00;8.8;;;7.2;;
37365;SDS011;23239;51.504;7.456;2023-06-22T01:54:00;8.8;;;7.2;;
37365;SDS011;23239;51.504;7.456;2023-06-22T01:55:00;8.8;;;7.2;;
37365;SDS011;23239;51.504;7.456;2023-06-22T01:56:00;8.8;;;7.2;;
37365;SDS011;23239;51.504;7.456;2023-06-22T01:57:00;8.8;;;7.2;;
37365;SDS011;23239;51.504;7.456;2023-06-22T01:58:00;12.6;;;8.2;;
37365;SDS011;23239;51.504;7.456;2023-06-22T01:59:01;12.6;;;8.2;;
37365;SDS011;23239;51.504;7.456;2023-06-22T02:00:00;12.6;;;8.2;;
37365;SDS011;23239;51.504;7.456;2023-06-22T02:01:09;12.6;;;8.2;;
37365;SDS011;23239;51.504;7.456;2023-06-22T02:02:01;12.6;;;8.2;;
37365;SDS011;23239;51.504;7.456;2023-06-22T02:03:01;11.3;;;7.8;;
37365;SDS011;23239;51.504;7.456;2023-06-22T02:04:02;11.3;;;7.8;;
37365;SDS011;23239;51.504;7.456;2023-06-22T02:05:01;11.3;;;7.8;;
37365;SDS011;23239;51.504;7.456;2023-06-22T02:06:01;11.3;;;7.8;;
37365;SDS011;23239;51.504;7.456;2023-06-22T02:07:00;11.3;;;7.8;;
37365;SDS011;23239;51.504;7.456;2023-06-22T02:08:02;13.0;;;8.7;;
37365;SDS011;23239;51.504;7.456;2023-06-22T02:09:01;13.0;;;8.7;;
37365;SDS011;23239;51.504;7.456;2023-06-22T02:10:00;13.0;;;8.7;;
37365;SDS011;23239;51.504;7.456;2023-06-22T02:11:00;13.0;;;8.7;;
37365;SDS011;23239;51.504;7.456;2023-06-22T02:12:00;13.0;;;8.7;;
37365;SDS011;23239;51.504;7.456;2023-06-22T02:13:01;12.4;;;8.1;;
37365;SDS011;23239;51.504;7.456;2023-06-22T02:14:00;12.4;;;8.1;;
37365;SDS011;23239;51.504;7.456;2023-06-22T02:15:00;12.4;;;8.1;;
37365;SDS011;23239;51.504;7.456;2023-06-22T02:16:00;12.4;;;8.1;;
37365;SDS011;23239;51.504;7.456;2023-06-22T02:17:00;12.4;;;8.1;;
37365;SDS011;23239;51.504;7.456;2023-06-22T02:18:00;10.8;;;8.6;;
37365;SDS011;23239;51.504;7.456;2023-06-22T02:19:01;10.8;;;8.6;;
37365;SDS011;23239;51.504;7.456;2023-06-22T02:20:01;10.8;;;8.6;;
37365;SDS011;23239;51.504;7.456;2023-06-22T02:21:00;10.8;;;8.6;;
37365;SDS011;23239;51.504;7.456;2023-06-22T02:22:00;10.8;;;8.6;;
37365;SDS011;23239;51.504;7.456;2023-06-22T02:23:00;13.1;;;9.2;;
37365;SDS011;23239;51.504;7.456;2023-06-22T02:24:00;13.1;;;9.2;;
37365;SDS011;23239;51.504;7.456;2023-06-22T02:25:00;13.1;;;9.2;;
37365;SDS011;23239;51.504;7.456;2023-06-22T02:26:00;13.1;;;9.2;;
37365;SDS011;23239;51.504;7.456;2023-06-22T02:27:00;13.1;;;9.2;;
37365;SDS011;23239;51.504;7.456;2023-06-22T02:28:00;15.0;;;11.0;;
37365;SDS011;23239;51.504;7.456;2023-06-22T02:29:00;15.0;;;11.0;;
37365;SDS011;23239;51.504;7.456;2023-06-22T02:30:00;15.0;;;11.0;;
37365;SDS011;23239;51.504;7.456;2023-06-22T02:31:00;15.0;;;11.0;;
37365;SDS011;23239;51.504;7.456;2023-06-22T02:32:00;15.0;;;11.0;;
37365;SDS011;23239;51.504;7.456;2023-06-22T02:33:00;20.2;;;13.6;;
37365;SDS011;23239;51.504;7.456;2023-06-22T02:34:00;20.2;;;13.6;;
37365;SDS011;23239;51.504;7.456;2023-06-22T02:35:00;20.2;;;13.6;;
37365;SDS011;23239;51.504;7.456;2023-06-22T02:36:00;20.2;;;13.6;;
37365;SDS011;23239;51.504;7.456;2023-06-22T02:37:00;20.2;;;13.6;;
37365;SDS011;23239;51.504;7.456;2023-06-22T02:38:00;22.2;;;13.3;;
37365;SDS011;23239;51.504;7.456;2023-06-22T02:39:00;22.2;;;13.3;;
37365;SDS011;23239;51.504;7.456;2023-06-22T02:40:00;22.2;;;13.3;;
37365;SDS011;23239;51.504;7.456;2023-06-22T02:41:00;22.2;;;13.3;;
37365;SDS011;23239;51.504;7.456;2023-06-22T02:42:00;22.2;;;13.3;;
37365;SDS011;23239;51.504;7.456;2023-06-22T02:43:00;17.0;;;11.4;;
37365;SDS011;23239;51.504;7.456;2023-06-22T02:44:00;17.0;;;11.4;;
37365;SDS011;23239;51.504;7.456;2023-06-22T02:45:00;17.0;;;11.4;;
37365;SDS011;23239;51.504;7.456;2023-06-22T02:46:00;17.0;;;11.4;;
37365;SDS011;23239;51.504;7.456;2023-06-22T02:47:00;17.0;;;11.4;;
37365;SDS011;23239;51.504;7.456;2023-06-22T02:48:00;15.2;;;10.8;;
37365;SDS011;23239;51.504;7.456;2023-06-22T02:49:00;15.2;;;10.8;;
37365;SDS011;23239;51.504;7.456;2023-06-22T02:50:00;15.2;;;10.8;;
37365;SDS011;23239;51.504;7.456;2023-06-22T02:51:00;15.2;;;10.8;;
37365;SDS011;23239;51.504;7.456;2023-06-22T02:52:00;15.2;;;10.8;;
37365;SDS011;23239;51.504;7.456;2023-06-22T02:53:00;15.2;;;10.8;;
37365;SDS011;23239;51.504;7.456;2023-06-22T02:54:00;13.1;;;9.1;;
37365;SDS011;23239;51.504;7.456;2023-06-22T02:55:00;13.1;;;9.1;;
37365;SDS011;23239;51.504;7.456;2023-06-22T02:56:01;13.1;;;9.1;;
37365;SDS011;23239;51.504;7.456;2023-06-22T02:57:00;13.1;;;9.1;;
37365;SDS011;23239;51.504;7.456;2023-06-22T02:58:00;13.1;;;9.1;;
37365;SDS011;23239;51.504;7.456;2023-06-22T02:59:00;16.6;;;9.6;;
37365;SDS011;23239;51.504;7.456;2023-06-22T03:00:02;16.6;;;9.6;;
37365;SDS011;23239;51.504;7.456;2023-06-22T03:01:00;16.6;;;9.6;;
37365;SDS011;23239;51.504;7.456;2023-06-22T03:02:00;16.6;;;9.6;;
37365;SDS011;23239;51.504;7.456;2023-06-22T03:03:00;16.6;;;9.6;;
37365;SDS011;23239;51.504;7.456;2023-06-22T03:04:00;12.6;;;9.3;;
37365;SDS011;23239;51.504;7.456;2023-06-22T03:05:00;12.6;;;9.3;;
37365;SDS011;23239;51.504;7.456;2023-06-22T03:06:00;12.6;;;9.3;;
37365;SDS011;23239;51.504;7.456;2023-06-22T03:07:00;12.6;;;9.3;;
37365;SDS011;23239;51.504;7.456;2023-06-22T03:08:00;12.6;;;9.3;;
37365;SDS011;23239;51.504;7.456;2023-06-22T03:09:01;15.3;;;9.8;;
37365;SDS011;23239;51.504;7.456;2023-06-22T03:10:00;15.3;;;9.8;;
37365;SDS011;23239;51.504;7.456;2023-06-22T03:11:00;15.3;;;9.8;;
37365;SDS011;23239;51.504;7.456;2023-06-22T03:12:00;15.3;;;9.8;;
37365;SDS011;23239;51.504;7.456;2023-06-22T03:13:00;15.3;;;9.8;;
37365;SDS011;23239;51.504;7.456;2023-06-22T03:14:00;15.3;;;10.6;;
37365;SDS011;23239;51.504;7.456;2023-06-22T03:15:00;15.3;;;10.6;;
37365;SDS011;23239;51.504;7.456;2023-06-22T03:16:00;15.3;;;10.6;;
37365;SDS011;23239;51.504;7.456;2023-06-22T03:17:00;15.3;;;10.6;;
37365;SDS011;23239;51.504;7.456;2023-06-22T03:18:00;15.3;;;10.6;;
37365;SDS011;23239;51.504;7.456;2023-06-22T03:19:00;14.2;;;10.8;;
37365;SDS011;23239;51.504;7.456;2023-06-22T03:20:00;14.2;;;10.8;;
37365;SDS011;23239;51.504;7.456;2023-06-22T03:21:00;14.2;;;10.8;;
37365;SDS011;23239;51.504;7.456;2023-06-22T03:22:00;14.2;;;10.8;;
37365;SDS011;23239;51.504;7.456;2023-06-22T03:23:00;14.2;;;10.8;;
37365;SDS011;23239;51.504;7.456;2023-06-22T03:24:00;15.7;;;11.8;;
37365;SDS011;23239;51.504;7.456;2023-06-22T03:25:00;15.7;;;11.8;;
37365;SDS011;23239;51.504;7.456;2023-06-22T03:26:00;15.7;;;11.8;;
37365;SDS011;23239;51.504;7.456;2023-06-22T03:27:00;15.7;;;11.8;;
37365;SDS011;23239;51.504;7.456;2023-06-22T03:28:00;15.7;;;11.8;;
37365;SDS011;23239;51.504;7.456;2023-06-22T03:29:00;15.7;;;10.4;;
37365;SDS011;23239;51.504;7.456;2023-06-22T03:30:00;15.7;;;10.4;;
37365;SDS011;23239;51.504;7.456;2023-06-22T03:31:00;15.7;;;10.4;;
37365;SDS011;23239;51.504;7.456;2023-06-22T03:32:00;15.7;;;10.4;;
37365;SDS011;23239;51.504;7.456;2023-06-22T03:33:00;15.7;;;10.4;;
37365;SDS011;23239;51.504;7.456;2023-06-22T03:34:00;15.9;;;9.7;;
37365;SDS011;23239;51.504;7.456;2023-06-22T03:35:00;15.9;;;9.7;;
37365;SDS011;23239;51.504;7.456;2023-06-22T03:36:00;15.9;;;9.7;;
37365;SDS011;23239;51.504;7.456;2023-06-22T03:37:00;15.9;;;9.7;;
37365;SDS011;23239;51.504;7.456;2023-06-22T03:38:00;15.9;;;9.7;;
37365;SDS011;23239;51.504;7.456;2023-06-22T03:39:00;12.9;;;9.6;;
37365;SDS011;23239;51.504;7.456;2023-06-22T03:40:00;12.9;;;9.6;;
37365;SDS011;23239;51.504;7.456;2023-06-22T03:41:00;12.9;;;9.6;;
37365;SDS011;23239;51.504;7.456;2023-06-22T03:42:00;12.9;;;9.6;;
37365;SDS011;23239;51.504;7.456;2023-06-22T03:43:00;12.9;;;9.6;;
37365;SDS011;23239;51.504;7.456;2023-06-22T03:44:00;13.7;;;10.1;;
37365;SDS011;23239;51.504;7.456;2023-06-22T03:45:00;13.7;;;10.1;;
37365;SDS011;23239;51.504;7.456;2023-06-22T03:46:00;13.7;;;10.1;;
37365;SDS011;23239;51.504;7.456;2023-06-22T03:47:00;13.7;;;10.1;;
37365;SDS011;23239;51.504;7.456;2023-06-22T03:48:00;13.7;;;10.1;;
37365;SDS011;23239;51.504;7.456;2023-06-22T03:49:00;13.8;;;9.5;;
37365;SDS011;23239;51.504;7.456;2023-06-22T03:50:00;13.8;;;9.5;;
37365;SDS011;23239;51.504;7.456;2023-06-22T03:51:00;13.8;;;9.5;;
37365;SDS011;23239;51.504;7.456;2023-06-22T03:52:00;13.8;;;9.5;;
37365;SDS011;23239;51.504;7.456;2023-06-22T03:53:00;13.8;;;9.5;;
37365;SDS011;23239;51.504;7.456;2023-06-22T03:54:00;13.8;;;11.0;;
37365;SDS011;23239;51.504;7.456;2023-06-22T03:55:00;13.8;;;11.0;;
37365;SDS011;23239;51.504;7.456;2023-06-22T03:56:00;13.8;;;11.0;;
37365;SDS011;23239;51.504;7.456;2023-06-22T03:57:00;13.8;;;11.0;;
37365;SDS011;23239;51.504;7.456;2023-06-22T03:58:00;13.8;;;11.0;;
37365;SDS011;23239;51.504;7.456;2023-06-22T03:59:00;11.9;;;10.1;;
37365;SDS011;23239;51.504;7.456;2023-06-22T04:00:00;11.9;;;10.1;;
37365;SDS011;23239;51.504;7.456;2023-06-22T04:01:00;11.9;;;10.1;;
37365;SDS011;23239;51.504;7.456;2023-06-22T04:02:00;11.9;;;10.1;;
37365;SDS011;23239;51.504;7.456;2023-06-22T04:03:00;11.9;;;10.1;;
37365;SDS011;23239;51.504;7.456;2023-06-22T04:04:00;13.6;;;10.4;;
37365;SDS011;23239;51.504;7.456;2023-06-22T04:05:00;13.6;;;10.4;;
37365;SDS011;23239;51.504;7.456;2023-06-22T04:06:00;13.6;;;10.4;;
37365;SDS011;23239;51.504;7.456;2023-06-22T04:07:00;13.6;;;10.4;;
37365;SDS011;23239;51.504;7.456;2023-06-22T04:08:00;13.6;;;10.4;;
37365;SDS011;23239;51.504;7.456;2023-06-22T04:09:00;11.6;;;10.0;;
37365;SDS011;23239;51.504;7.456;2023-06-22T04:10:00;11.6;;;10.0;;
37365;SDS011;23239;51.504;7.456;2023-06-22T04:11:00;11.6;;;10.0;;
37365;SDS011;23239;51.504;7.456;2023-06-22T04:12:00;11.6;;;10.0;;
37365;SDS011;23239;51.504;7.456;2023-06-22T04:13:00;11.6;;;10.0;;
37365;SDS011;23239;51.504;7.456;2023-06-22T04:14:00;13.1;;;10.0;;
37365;SDS011;23239;51.504;7.456;2023-06-22T04:15:00;13.1;;;10.0;;
37365;SDS011;23239;51.504;7.456;2023-06-22T04:16:00;13.1;;;10.0;;
37365;SDS011;23239;51.504;7.456;2023-06-22T04:17:01;13.1;;;10.0;;
37365;SDS011;23239;51.504;7.456;2023-06-22T04:18:00;13.1;;;10.0;;
37365;SDS011;23239;51.504;7.456;2023-06-22T04:19:00;13.8;;;10.2;;
37365;SDS011;23239;51.504;7.456;2023-06-22T04:20:00;13.8;;;10.2;;
37365;SDS011;23239;51.504;7.456;2023-06-22T04:21:01;13.8;;;10.2;;
37365;SDS011;23239;51.504;7.456;2023-06-22T04:22:00;13.8;;;10.2;;
37365;SDS011;23239;51.504;7.456;2023-06-22T04:23:00;13.8;;;10.2;;
37365;SDS011;23239;51.504;7.456;2023-06-22T04:24:00;15.9;;;10.6;;
37365;SDS011;23239;51.504;7.456;2023-06-22T04:25:00;15.9;;;10.6;;
37365;SDS011;23239;51.504;7.456;2023-06-22T04:26:00;15.9;;;10.6;;
37365;SDS011;23239;51.504;7.456;2023-06-22T04:27:00;15.9;;;10.6;;
37365;SDS011;23239;51.504;7.456;2023-06-22T04:28:00;15.9;;;10.6;;
37365;SDS011;23239;51.504;7.456;2023-06-22T04:29:00;14.1;;;10.2;;
37365;SDS011;23239;51.504;7.456;2023-06-22T04:30:00;14.1;;;10.2;;
37365;SDS011;23239;51.504;7.456;2023-06-22T04:31:00;14.1;;;10.2;;
37365;SDS011;23239;51.504;7.456;2023-06-22T04:32:00;14.1;;;10.2;;
37365;SDS011;23239;51.504;7.456;2023-06-22T04:33:00;14.1;;;10.2;;
37365;SDS011;23239;51.504;7.456;2023-06-22T04:34:00;16.5;;;11.8;;
37365;SDS011;23239;51.504;7.456;2023-06-22T04:35:00;16.5;;;11.8;;
37365;SDS011;23239;51.504;7.456;2023-06-22T04:36:00;16.5;;;11.8;;
37365;SDS011;23239;51.504;7.456;2023-06-22T04:37:00;16.5;;;11.8;;
37365;SDS011;23239;51.504;7.456;2023-06-22T04:38:00;16.5;;;11.8;;
37365;SDS011;23239;51.504;7.456;2023-06-22T04:39:00;14.1;;;10.9;;
37365;SDS011;23239;51.504;7.456;2023-06-22T04:40:00;14.1;;;10.9;;
37365;SDS011;23239;51.504;7.456;2023-06-22T04:41:00;14.1;;;10.9;;
37365;SDS011;23239;51.504;7.456;2023-06-22T04:42:00;14.1;;;10.9;;
37365;SDS011;23239;51.504;7.456;2023-06-22T04:43:00;14.1;;;10.9;;
37365;SDS011;23239;51.504;7.456;2023-06-22T04:44:00;17.1;;;12.0;;
37365;SDS011;23239;51.504;7.456;2023-06-22T04:45:00;17.1;;;12.0;;
37365;SDS011;23239;51.504;7.456;2023-06-22T04:46:00;17.1;;;12.0;;
37365;SDS011;23239;51.504;7.456;2023-06-22T04:47:01;17.1;;;12.0;;
37365;SDS011;23239;51.504;7.456;2023-06-22T04:48:00;17.1;;;12.0;;
37365;SDS011;23239;51.504;7.456;2023-06-22T04:49:00;14.6;;;11.9;;
37365;SDS011;23239;51.504;7.456;2023-06-22T04:50:00;14.6;;;11.9;;
37365;SDS011;23239;51.504;7.456;2023-06-22T04:51:01;14.6;;;11.9;;
37365;SDS011;23239;51.504;7.456;2023-06-22T04:52:00;14.6;;;11.9;;
37365;SDS011;23239;51.504;7.456;2023-06-22T04:53:00;14.6;;;11.9;;
37365;SDS011;23239;51.504;7.456;2023-06-22T04:54:00;12.7;;;11.2;;
37365;SDS011;23239;51.504;7.456;2023-06-22T04:55:00;12.7;;;11.2;;
37365;SDS011;23239;51.504;7.456;2023-06-22T04:56:00;12.7;;;11.2;;
37365;SDS011;23239;51.504;7.456;2023-06-22T04:57:00;12.7;;;11.2;;
37365;SDS011;23239;51.504;7.456;2023-06-22T04:58:00;12.7;;;11.2;;
37365;SDS011;23239;51.504;7.456;2023-06-22T04:59:00;12.7;;;10.6;;
37365;SDS011;23239;51.504;7.456;2023-06-22T05:00:00;12.7;;;10.6;;
37365;SDS011;23239;51.504;7.456;2023-06-22T05:01:00;12.7;;;10.6;;
37365;SDS011;23239;51.504;7.456;2023-06-22T05:02:01;12.7;;;10.6;;
37365;SDS011;23239;51.504;7.456;2023-06-22T05:03:00;12.7;;;10.6;;
37365;SDS011;23239;51.504;7.456;2023-06-22T05:04:00;13.0;;;10.4;;
37365;SDS011;23239;51.504;7.456;2023-06-22T05:05:00;13.0;;;10.4;;
37365;SDS011;23239;51.504;7.456;2023-06-22T05:06:00;13.0;;;10.4;;
37365;SDS011;23239;51.504;7.456;2023-06-22T05:07:00;13.0;;;10.4;;
37365;SDS011;23239;51.504;7.456;2023-06-22T05:08:00;13.0;;;10.4;;
37365;SDS011;23239;51.504;7.456;2023-06-22T05:09:00;12.8;;;10.7;;
37365;SDS011;23239;51.504;7.456;2023-06-22T05:10:00;12.8;;;10.7;;
37365;SDS011;23239;51.504;7.456;2023-06-22T05:11:00;12.8;;;10.7;;
37365;SDS011;23239;51.504;7.456;2023-06-22T05:12:00;12.8;;;10.7;;
37365;SDS011;23239;51.504;7.456;2023-06-22T05:13:00;12.8;;;10.7;;
37365;SDS011;23239;51.504;7.456;2023-06-22T05:14:00;13.7;;;10.9;;
37365;SDS011;23239;51.504;7.456;2023-06-22T05:15:00;13.7;;;10.9;;
37365;SDS011;23239;51.504;7.456;2023-06-22T05:16:00;13.7;;;10.9;;
37365;SDS011;23239;51.504;7.456;2023-06-22T05:17:00;13.7;;;10.9;;
37365;SDS011;23239;51.504;7.456;2023-06-22T05:18:00;13.7;;;10.9;;
37365;SDS011;23239;51.504;7.456;2023-06-22T05:19:00;12.3;;;10.2;;
37365;SDS011;23239;51.504;7.456;2023-06-22T05:20:00;12.3;;;10.2;;
37365;SDS011;23239;51.504;7.456;2023-06-22T05:21:00;12.3;;;10.2;;
37365;SDS011;23239;51.504;7.456;2023-06-22T05:22:00;12.3;;;10.2;;
37365;SDS011;23239;51.504;7.456;2023-06-22T05:23:00;12.3;;;10.2;;
37365;SDS011;23239;51.504;7.456;2023-06-22T05:24:00;18.0;;;10.6;;
37365;SDS011;23239;51.504;7.456;2023-06-22T05:25:00;18.0;;;10.6;;
37365;SDS011;23239;51.504;7.456;2023-06-22T05:26:00;18.0;;;10.6;;
37365;SDS011;23239;51.504;7.456;2023-06-22T05:27:00;18.0;;;10.6;;
37365;SDS011;23239;51.504;7.456;2023-06-22T05:28:00;18.0;;;10.6;;
37365;SDS011;23239;51.504;7.456;2023-06-22T05:29:01;13.4;;;9.7;;
37365;SDS011;23239;51.504;7.456;2023-06-22T05:30:00;13.4;;;9.7;;
37365;SDS011;23239;51.504;7.456;2023-06-22T05:31:00;13.4;;;9.7;;
37365;SDS011;23239;51.504;7.456;2023-06-22T05:32:00;13.4;;;9.7;;
37365;SDS011;23239;51.504;7.456;2023-06-22T05:33:00;13.4;;;9.7;;
37365;SDS011;23239;51.504;7.456;2023-06-22T05:34:00;14.2;;;10.3;;
37365;SDS011;23239;51.504;7.456;2023-06-22T05:35:00;14.2;;;10.3;;
37365;SDS011;23239;51.504;7.456;2023-06-22T05:36:00;14.2;;;10.3;;
37365;SDS011;23239;51.504;7.456;2023-06-22T05:37:00;14.2;;;10.3;;
37365;SDS011;23239;51.504;7.456;2023-06-22T05:38:00;14.2;;;10.3;;
37365;SDS011;23239;51.504;7.456;2023-06-22T05:39:00;15.5;;;9.8;;
37365;SDS011;23239;51.504;7.456;2023-06-22T05:40:00;15.5;;;9.8;;
37365;SDS011;23239;51.504;7.456;2023-06-22T05:41:00;15.5;;;9.8;;
37365;SDS011;23239;51.504;7.456;2023-06-22T05:42:00;15.5;;;9.8;;
37365;SDS011;23239;51.504;7.456;2023-06-22T05:43:00;15.5;;;9.8;;
37365;SDS011;23239;51.504;7.456;2023-06-22T05:44:00;14.5;;;9.8;;
37365;SDS011;23239;51.504;7.456;2023-06-22T05:45:00;14.5;;;9.8;;
37365;SDS011;23239;51.504;7.456;2023-06-22T05:46:00;14.5;;;9.8;;
37365;SDS011;23239;51.504;7.456;2023-06-22T05:47:00;14.5;;;9.8;;
37365;SDS011;23239;51.504;7.456;2023-06-22T05:48:00;14.5;;;9.8;;
37365;SDS011;23239;51.504;7.456;2023-06-22T05:49:00;14.3;;;9.0;;
37365;SDS011;23239;51.504;7.456;2023-06-22T05:50:00;14.3;;;9.0;;
37365;SDS011;23239;51.504;7.456;2023-06-22T05:51:00;14.3;;;9.0;;
37365;SDS011;23239;51.504;7.456;2023-06-22T05:52:00;14.3;;;9.0;;
37365;SDS011;23239;51.504;7.456;2023-06-22T05:53:00;14.3;;;9.0;;
37365;SDS011;23239;51.504;7.456;2023-06-22T05:54:00;11.7;;;9.0;;
37365;SDS011;23239;51.504;7.456;2023-06-22T05:55:01;11.7;;;9.0;;
37365;SDS011;23239;51.504;7.456;2023-06-22T05:56:00;11.7;;;9.0;;
37365;SDS011;23239;51.504;7.456;2023-06-22T05:57:00;11.7;;;9.0;;
37365;SDS011;23239;51.504;7.456;2023-06-22T05:58:00;11.7;;;9.0;;
37365;SDS011;23239;51.504;7.456;2023-06-22T05:59:00;12.3;;;9.2;;
37365;SDS011;23239;51.504;7.456;2023-06-22T06:00:00;12.3;;;9.2;;
37365;SDS011;23239;51.504;7.456;2023-06-22T06:01:00;12.3;;;9.2;;
37365;SDS011;23239;51.504;7.456;2023-06-22T06:02:00;12.3;;;9.2;;
37365;SDS011;23239;51.504;7.456;2023-06-22T06:03:00;12.3;;;9.2;;
37365;SDS011;23239;51.504;7.456;2023-06-22T06:04:00;13.6;;;11.5;;
37365;SDS011;23239;51.504;7.456;2023-06-22T06:05:00;13.6;;;11.5;;